createdAt,value
2023-03-05T00:00:56.744Z,100728.25
2023-03-05T00:04:00.581Z,100734.22
2023-03-05T00:07:03.536Z,100726.59
2023-03-05T00:10:07.285Z,100720.75
2023-03-05T00:13:10.162Z,100722.88
2023-03-05T00:16:15.542Z,100720.31
2023-03-05T00:19:18.298Z,100716.91
2023-03-05T00:22:21.334Z,100711.31
2023-03-05T00:25:24.098Z,100704.47
2023-03-05T00:28:26.968Z,100701.72
2023-03-05T00:31:32.000Z,100702.22
2023-03-05T00:34:36.472Z,100696.88
2023-03-05T00:37:39.478Z,100694.78
2023-03-05T00:40:42.391Z,100678.97
2023-03-05T00:43:45.504Z,100692.06
2023-03-05T00:46:48.847Z,100694.72
2023-03-05T00:49:51.993Z,100691.34
2023-03-05T00:52:54.865Z,100694.88
2023-03-05T00:55:59.628Z,100675.94
2023-03-05T00:59:02.478Z,100677.69
2023-03-05T01:02:05.387Z,100675.09
2023-03-05T01:05:11.337Z,100676.47
2023-03-05T01:08:14.349Z,100678.81
2023-03-05T01:11:17.256Z,100677.50
2023-03-05T01:14:21.237Z,100680.13
2023-03-05T01:17:24.016Z,100670.44
2023-03-05T01:20:26.813Z,100672.91
2023-03-05T01:23:29.635Z,100672.06
2023-03-05T01:26:32.673Z,100675.22
2023-03-05T01:29:37.386Z,100688.25
2023-03-05T01:32:40.293Z,100682.09
2023-03-05T01:35:45.862Z,100675.91
2023-03-05T01:38:49.474Z,100675.38
2023-03-05T01:41:52.405Z,100678.63
2023-03-05T01:45:10.346Z,100677.47
2023-03-05T01:48:13.129Z,100673.75
2023-03-05T01:51:18.974Z,100676.25
2023-03-05T01:54:25.432Z,100672.38
2023-03-05T01:57:38.517Z,100669.13
2023-03-05T02:00:47.131Z,100673.97
2023-03-05T02:03:50.129Z,100672.38
2023-03-05T02:06:53.652Z,100673.09
2023-03-05T02:09:56.380Z,100672.13
2023-03-05T02:13:02.401Z,100671.53
2023-03-05T02:16:05.596Z,100673.97
2023-03-05T02:19:10.867Z,100665.78
2023-03-05T02:22:22.386Z,100663.69
2023-03-05T02:25:29.027Z,100665.69
2023-03-05T02:28:42.757Z,100664.81
2023-03-05T02:31:45.997Z,100658.34
2023-03-05T02:34:48.843Z,100661.47
2023-03-05T02:37:51.680Z,100670.97
2023-03-05T02:40:54.504Z,100672.31
2023-03-05T02:43:57.420Z,100670.09
2023-03-05T02:47:01.018Z,100664.47
2023-03-05T02:50:05.143Z,100667.81
2023-03-05T02:53:08.239Z,100670.38
2023-03-05T02:56:11.148Z,100660.81
2023-03-05T02:59:13.980Z,100665.59
2023-03-05T03:02:17.968Z,100666.03
2023-03-05T03:05:20.623Z,100664.00
2023-03-05T03:08:23.336Z,100665.25
2023-03-05T03:11:26.317Z,100665.25
2023-03-05T03:14:32.960Z,100663.03
2023-03-05T03:17:36.962Z,100657.91
2023-03-05T03:20:39.960Z,100661.25
2023-03-05T03:23:42.731Z,100660.56
2023-03-05T03:26:45.376Z,100661.59
2023-03-05T03:29:48.124Z,100664.47
2023-03-05T03:32:52.532Z,100664.66
2023-03-05T03:35:55.334Z,100665.78
2023-03-05T03:38:58.228Z,100670.59
2023-03-05T03:42:01.038Z,100661.25
2023-03-05T03:45:04.352Z,100668.38
2023-03-05T03:48:07.073Z,100669.25
2023-03-05T03:51:09.948Z,100663.91
2023-03-05T03:54:13.918Z,100669.19
2023-03-05T03:57:16.584Z,100661.25
2023-03-05T04:00:19.706Z,100662.00
2023-03-05T04:03:22.416Z,100670.38
2023-03-05T04:06:25.591Z,100668.28
2023-03-05T04:09:28.399Z,100673.34
2023-03-05T04:12:31.106Z,100675.44
2023-03-05T04:15:34.373Z,100666.91
2023-03-05T04:18:37.113Z,100663.13
2023-03-05T04:21:40.369Z,100671.56
2023-03-05T04:24:43.427Z,100674.81
2023-03-05T04:27:46.171Z,100672.44
2023-03-05T04:30:49.056Z,100666.66
2023-03-05T04:33:52.017Z,100666.22
2023-03-05T04:36:54.817Z,100668.69
2023-03-05T04:39:57.596Z,100671.00
2023-03-05T04:43:00.481Z,100666.66
2023-03-05T04:46:03.466Z,100666.59
2023-03-05T04:49:06.492Z,100671.69
2023-03-05T04:52:11.460Z,100666.47
2023-03-05T04:55:15.609Z,100665.56
2023-03-05T04:58:18.365Z,100662.94
2023-03-05T05:01:21.479Z,100666.25
2023-03-05T05:04:24.666Z,100666.91
2023-03-05T05:07:27.535Z,100670.03
2023-03-05T05:10:31.696Z,100668.03
2023-03-05T05:13:35.533Z,100672.28
2023-03-05T05:16:38.254Z,100675.53
2023-03-05T05:19:41.101Z,100678.91
2023-03-05T05:22:44.183Z,100672.44
2023-03-05T05:25:47.071Z,100676.78
2023-03-05T05:28:49.925Z,100678.94
2023-03-05T05:31:54.316Z,100674.09
2023-03-05T05:34:58.720Z,100672.38
2023-03-05T05:38:01.461Z,100675.84
2023-03-05T05:41:07.985Z,100672.44
2023-03-05T05:44:11.112Z,100676.63
2023-03-05T05:47:15.658Z,100681.88
2023-03-05T05:50:20.418Z,100684.47
2023-03-05T05:53:23.742Z,100687.91
2023-03-05T05:56:26.511Z,100681.84
2023-03-05T05:59:29.291Z,100690.16
2023-03-05T06:02:32.048Z,100689.28
2023-03-05T06:05:35.415Z,100693.31
2023-03-05T06:08:38.866Z,100691.22
2023-03-05T06:11:41.636Z,100703.19
2023-03-05T06:14:44.365Z,100708.59
2023-03-05T06:17:48.082Z,100708.56
2023-03-05T06:21:05.537Z,100702.63
2023-03-05T06:24:08.428Z,100711.84
2023-03-05T06:27:11.188Z,100718.97
2023-03-05T06:30:14.249Z,100706.69
2023-03-05T06:33:17.806Z,100710.63
2023-03-05T06:36:22.311Z,100703.16
2023-03-05T06:39:25.180Z,100710.88
2023-03-05T06:42:27.982Z,100704.91
2023-03-05T06:45:30.830Z,100703.63
2023-03-05T06:48:34.061Z,100708.25
2023-03-05T06:51:39.302Z,100704.97
2023-03-05T06:54:42.173Z,100709.56
2023-03-05T06:57:45.282Z,100713.97
2023-03-05T07:00:48.287Z,100714.06
2023-03-05T07:03:55.513Z,100719.66
2023-03-05T07:06:59.454Z,100708.50
2023-03-05T07:10:02.513Z,100713.25
2023-03-05T07:13:05.215Z,100705.91
2023-03-05T07:16:10.617Z,100712.31
2023-03-05T07:19:14.108Z,100708.88
2023-03-05T07:22:17.102Z,100709.53
2023-03-05T07:25:21.737Z,100712.91
2023-03-05T07:28:25.185Z,100708.91
2023-03-05T07:31:31.171Z,100698.94
2023-03-05T07:34:34.080Z,100699.53
2023-03-05T07:37:36.858Z,100697.41
2023-03-05T07:40:39.669Z,100695.84
2023-03-05T07:43:43.067Z,100695.50
2023-03-05T07:46:45.929Z,100700.56
2023-03-05T07:49:48.708Z,100698.28
2023-03-05T07:52:51.617Z,100701.56
2023-03-05T07:55:54.553Z,100705.19
2023-03-05T07:59:00.665Z,100696.28
2023-03-05T08:02:03.507Z,100704.81
2023-03-05T08:05:06.719Z,100704.38
2023-03-05T08:08:11.488Z,100715.31
2023-03-05T08:11:16.404Z,100709.03
2023-03-05T08:14:19.204Z,100710.22
2023-03-05T08:17:21.954Z,100718.66
2023-03-05T08:20:24.800Z,100720.22
2023-03-05T08:23:28.538Z,100714.84
2023-03-05T08:26:33.450Z,100712.88
2023-03-05T08:29:36.278Z,100723.03
2023-03-05T08:32:39.573Z,100708.78
2023-03-05T08:35:42.471Z,100709.72
2023-03-05T08:38:46.877Z,100705.34
2023-03-05T08:41:49.583Z,100702.63
2023-03-05T08:44:52.353Z,100708.66
2023-03-05T08:47:57.477Z,100692.69
2023-03-05T08:51:15.554Z,100690.69
2023-03-05T08:54:18.369Z,100689.97
2023-03-05T08:57:21.128Z,100694.34
2023-03-05T09:00:24.038Z,100674.75
2023-03-05T09:03:27.368Z,100681.97
2023-03-05T09:06:30.205Z,100691.97
2023-03-05T09:09:33.228Z,100689.06
2023-03-05T09:12:36.016Z,100687.31
2023-03-05T09:15:39.565Z,100683.81
2023-03-05T09:18:43.118Z,100683.94
2023-03-05T09:21:45.864Z,100686.78
2023-03-05T09:24:48.697Z,100681.88
2023-03-05T09:27:51.412Z,100684.19
2023-03-05T09:30:55.370Z,100678.31
2023-03-05T09:33:58.187Z,100681.44
2023-03-05T09:37:00.977Z,100683.59
2023-03-05T09:40:04.308Z,100672.66
2023-03-05T09:43:19.626Z,100674.94
2023-03-05T09:46:56.594Z,100672.41
2023-03-05T09:50:32.673Z,100669.28
2023-03-05T09:53:51.103Z,100663.56
2023-03-05T09:56:59.063Z,100658.84
2023-03-05T10:00:08.974Z,100662.72
2023-03-05T10:03:44.658Z,100656.47
2023-03-05T10:07:00.818Z,100659.78
2023-03-05T10:10:26.393Z,100653.22
2023-03-05T10:13:41.165Z,100652.03
2023-03-05T10:17:01.609Z,100642.44
2023-03-05T10:20:19.252Z,100643.97
2023-03-05T10:23:37.282Z,100635.28
2023-03-05T10:27:07.842Z,100630.19
2023-03-05T10:30:25.710Z,100625.13
2023-03-05T10:33:53.076Z,100620.22
2023-03-05T10:37:08.372Z,100606.59
2023-03-05T10:40:17.026Z,100593.56
2023-03-05T10:43:25.746Z,100594.69
2023-03-05T10:46:35.599Z,100588.19
2023-03-05T10:49:52.208Z,100590.78
2023-03-05T10:53:14.102Z,100593.94
2023-03-05T10:56:21.959Z,100580.28
2023-03-05T10:59:24.836Z,100576.63
2023-03-05T11:02:27.730Z,100566.47
2023-03-05T11:05:40.313Z,100560.47
2023-03-05T11:08:43.132Z,100558.78
2023-03-05T11:12:14.147Z,100549.59
2023-03-05T11:15:17.095Z,100549.16
2023-03-05T11:18:23.209Z,100546.94
2023-03-05T11:21:28.526Z,100535.81
2023-03-05T11:24:31.203Z,100528.44
2023-03-05T11:27:33.830Z,100525.88
2023-03-05T11:30:37.827Z,100527.34
2023-03-05T11:33:53.630Z,100516.75
2023-03-05T11:36:57.085Z,100516.31
2023-03-05T11:40:15.775Z,100513.00
2023-03-05T11:43:21.933Z,100511.84
2023-03-05T11:46:25.935Z,100503.56
2023-03-05T11:49:34.131Z,100504.50
2023-03-05T11:53:09.992Z,100490.63
2023-03-05T11:56:28.259Z,100485.34
2023-03-05T11:59:35.921Z,100481.59
2023-03-05T12:02:39.303Z,100482.28
2023-03-05T12:05:46.917Z,100480.75
2023-03-05T12:08:55.100Z,100475.69
2023-03-05T12:12:12.906Z,100469.03
2023-03-05T12:15:18.686Z,100465.19
2023-03-05T12:18:38.186Z,100459.03
2023-03-05T12:21:43.318Z,100450.66
2023-03-05T12:24:46.231Z,100453.41
2023-03-05T12:27:49.189Z,100451.94
2023-03-05T12:30:52.160Z,100446.56
2023-03-05T12:33:55.040Z,100444.16
2023-03-05T12:36:58.076Z,100438.50
2023-03-05T12:40:21.198Z,100435.38
2023-03-05T12:43:32.570Z,100432.69
2023-03-05T12:46:39.955Z,100428.88
2023-03-05T12:49:45.650Z,100434.81
2023-03-05T12:52:48.690Z,100428.75
2023-03-05T12:56:01.130Z,100431.72
2023-03-05T12:59:04.609Z,100425.75
2023-03-05T13:02:31.714Z,100429.22
2023-03-05T13:05:39.353Z,100423.94
2023-03-05T13:08:43.728Z,100417.94
2023-03-05T13:11:49.995Z,100417.94
2023-03-05T13:15:02.085Z,100414.06
2023-03-05T13:18:08.648Z,100418.53
2023-03-05T13:21:17.521Z,100417.44
2023-03-05T13:24:20.386Z,100408.00
2023-03-05T13:27:31.388Z,100406.88
2023-03-05T13:30:34.849Z,100410.44
2023-03-05T13:33:38.605Z,100394.88
2023-03-05T13:36:47.510Z,100400.09
2023-03-05T13:39:55.376Z,100397.16
2023-03-05T13:43:20.853Z,100395.31
2023-03-05T13:46:32.931Z,100388.50
2023-03-05T13:49:36.133Z,100384.84
2023-03-05T13:52:39.284Z,100389.25
2023-03-05T13:55:42.557Z,100384.13
2023-03-05T13:58:52.998Z,100378.81
2023-03-05T14:01:58.653Z,100379.47
2023-03-05T14:05:02.036Z,100378.44
2023-03-05T14:08:04.997Z,100376.31
2023-03-05T14:11:18.743Z,100370.22
2023-03-05T14:14:23.531Z,100366.94
2023-03-05T14:17:45.209Z,100364.72
2023-03-05T14:21:08.983Z,100366.13
2023-03-05T14:24:24.344Z,100363.28
2023-03-05T14:27:31.802Z,100369.25
2023-03-05T14:30:36.428Z,100365.75
2023-03-05T14:33:40.876Z,100364.56
2023-03-05T14:36:48.939Z,100356.59
2023-03-05T14:39:55.264Z,100363.31
2023-03-05T14:43:10.766Z,100364.56
2023-03-05T14:46:13.941Z,100345.06
2023-03-05T14:49:17.778Z,100355.31
2023-03-05T14:52:24.013Z,100347.38
2023-03-05T14:55:31.702Z,100348.56
2023-03-05T14:58:35.717Z,100339.41
2023-03-05T15:01:38.577Z,100342.72
2023-03-05T15:04:41.847Z,100346.16
2023-03-05T15:07:46.200Z,100348.38
2023-03-05T15:10:52.038Z,100346.44
2023-03-05T15:13:55.035Z,100351.28
2023-03-05T15:16:58.216Z,100345.34
2023-03-05T15:20:01.540Z,100343.84
2023-03-05T15:23:04.566Z,100341.78
2023-03-05T15:26:09.802Z,100343.78
2023-03-05T15:29:12.843Z,100346.59
2023-03-05T15:32:16.449Z,100345.78
2023-03-05T15:35:20.033Z,100342.19
2023-03-05T15:38:23.414Z,100345.78
2023-03-05T15:41:26.345Z,100349.44
2023-03-05T15:44:29.422Z,100347.88
2023-03-05T15:47:33.515Z,100343.81
2023-03-05T15:50:36.735Z,100349.41
2023-03-05T15:53:39.909Z,100344.41
2023-03-05T15:56:43.019Z,100351.19
2023-03-05T15:59:46.074Z,100344.66
2023-03-05T16:02:49.161Z,100345.19
2023-03-05T16:05:52.326Z,100348.13
2023-03-05T16:09:01.003Z,100353.31
2023-03-05T16:12:08.919Z,100352.47
2023-03-05T16:15:15.365Z,100346.22
2023-03-05T16:18:19.174Z,100351.97
2023-03-05T16:21:22.423Z,100356.56
2023-03-05T16:24:26.204Z,100350.59
2023-03-05T16:27:29.696Z,100357.25
2023-03-05T16:30:35.948Z,100359.13
2023-03-05T16:33:39.128Z,100364.28
2023-03-05T16:36:48.427Z,100362.38
2023-03-05T16:39:52.409Z,100366.34
2023-03-05T16:42:55.558Z,100364.34
2023-03-05T16:45:58.602Z,100365.06
2023-03-05T16:49:01.654Z,100364.34
2023-03-05T16:52:16.429Z,100362.75
2023-03-05T16:55:21.718Z,100366.16
2023-03-05T16:58:24.569Z,100361.56
2023-03-05T17:01:30.350Z,100361.47
2023-03-05T17:04:34.123Z,100362.72
2023-03-05T17:07:36.993Z,100366.09
2023-03-05T17:10:42.038Z,100366.81
2023-03-05T17:13:48.200Z,100370.47
2023-03-05T17:16:52.006Z,100366.13
2023-03-05T17:19:55.052Z,100372.19
2023-03-05T17:22:59.033Z,100370.72
2023-03-05T17:26:13.747Z,100371.03
2023-03-05T17:29:19.077Z,100368.03
2023-03-05T17:32:22.613Z,100372.84
2023-03-05T17:35:25.543Z,100374.81
2023-03-05T17:38:28.632Z,100368.75
2023-03-05T17:41:31.640Z,100366.75
2023-03-05T17:44:34.632Z,100373.81
2023-03-05T17:47:38.079Z,100367.00
2023-03-05T17:50:41.591Z,100368.66
2023-03-05T17:53:45.345Z,100362.75
2023-03-05T17:56:48.478Z,100367.09
2023-03-05T17:59:51.750Z,100363.00
2023-03-05T18:02:58.184Z,100364.44
2023-03-05T18:06:01.319Z,100365.00
2023-03-05T18:09:07.356Z,100362.34
2023-03-05T18:12:10.294Z,100371.41
2023-03-05T18:15:15.794Z,100363.53
2023-03-05T18:18:18.982Z,100370.88
2023-03-05T18:21:23.585Z,100371.69
2023-03-05T18:24:26.935Z,100365.53
2023-03-05T18:27:31.234Z,100360.75
2023-03-05T18:30:34.578Z,100361.91
2023-03-05T18:33:38.946Z,100355.66
2023-03-05T18:36:41.950Z,100355.94
2023-03-05T18:39:44.756Z,100354.75
2023-03-05T18:42:48.443Z,100356.75
2023-03-05T18:45:54.043Z,100357.94
2023-03-05T18:48:57.143Z,100356.84
2023-03-05T18:52:00.412Z,100354.66
2023-03-05T18:55:03.646Z,100359.22
2023-03-05T18:58:06.515Z,100351.59
2023-03-05T19:01:09.866Z,100350.31
2023-03-05T19:04:13.426Z,100355.78
2023-03-05T19:07:16.473Z,100355.47
2023-03-05T19:10:19.378Z,100353.69
2023-03-05T19:13:40.233Z,100353.31
2023-03-05T19:16:44.303Z,100355.13
2023-03-05T19:19:55.018Z,100351.75
2023-03-05T19:22:58.066Z,100354.66
2023-03-05T19:26:02.287Z,100351.41
2023-03-05T19:29:07.748Z,100353.59
2023-03-05T19:32:14.694Z,100368.72
2023-03-05T19:35:18.273Z,100365.94
2023-03-05T19:38:21.133Z,100362.19
2023-03-05T19:41:26.365Z,100352.41
2023-03-05T19:44:30.059Z,100356.84
2023-03-05T19:47:33.086Z,100355.13
2023-03-05T19:50:36.154Z,100370.16
2023-03-05T19:53:40.134Z,100365.94
2023-03-05T19:56:44.713Z,100368.28
2023-03-05T19:59:50.946Z,100364.97
2023-03-05T20:02:54.057Z,100371.25
2023-03-05T20:05:57.210Z,100370.97
2023-03-05T20:09:00.424Z,100373.53
2023-03-05T20:12:05.711Z,100368.09
2023-03-05T20:15:08.979Z,100366.47
2023-03-05T20:18:12.176Z,100363.28
2023-03-05T20:21:21.561Z,100356.41
2023-03-05T20:24:26.339Z,100354.88
2023-03-05T20:27:29.077Z,100355.03
2023-03-05T20:30:32.164Z,100357.84
2023-03-05T20:33:35.150Z,100352.13
2023-03-05T20:36:39.354Z,100353.47
2023-03-05T20:39:42.460Z,100361.81
2023-03-05T20:42:45.732Z,100365.94
2023-03-05T20:45:49.544Z,100366.38
2023-03-05T20:48:56.615Z,100367.75
2023-03-05T20:51:59.679Z,100364.19
2023-03-05T20:55:03.861Z,100361.19
2023-03-05T20:58:07.264Z,100359.19
2023-03-05T21:01:10.463Z,100357.13
2023-03-05T21:04:13.824Z,100359.22
2023-03-05T21:07:16.744Z,100361.03
2023-03-05T21:10:20.719Z,100356.19
2023-03-05T21:13:25.557Z,100355.28
2023-03-05T21:16:28.741Z,100352.28
2023-03-05T21:19:33.796Z,100341.97
2023-03-05T21:22:36.841Z,100352.09
2023-03-05T21:25:40.045Z,100340.22
2023-03-05T21:28:43.259Z,100337.22
2023-03-05T21:31:46.580Z,100335.22
2023-03-05T21:34:49.600Z,100335.78
2023-03-05T21:37:52.765Z,100340.03
2023-03-05T21:40:58.159Z,100335.44
2023-03-05T21:44:04.254Z,100332.06
2023-03-05T21:47:07.332Z,100339.78
2023-03-05T21:50:14.218Z,100325.97
2023-03-05T21:53:18.519Z,100319.50
2023-03-05T21:56:28.261Z,100322.19
2023-03-05T21:59:31.125Z,100326.94
2023-03-05T22:02:33.887Z,100319.41
2023-03-05T22:05:36.778Z,100327.13
2023-03-05T22:08:39.914Z,100316.28
2023-03-05T22:11:44.116Z,100312.09
2023-03-05T22:14:46.932Z,100309.66
2023-03-05T22:17:50.016Z,100304.91
2023-03-05T22:20:53.476Z,100301.47
2023-03-05T22:23:57.603Z,100303.28
2023-03-05T22:27:02.048Z,100300.00
2023-03-05T22:30:05.775Z,100302.00
2023-03-05T22:33:08.554Z,100299.31
2023-03-05T22:36:12.610Z,100299.22
2023-03-05T22:39:15.398Z,100299.38
2023-03-05T22:42:18.180Z,100295.56
2023-03-05T22:45:21.038Z,100294.06
2023-03-05T22:48:23.793Z,100302.75
2023-03-05T22:51:26.687Z,100299.31
2023-03-05T22:54:29.480Z,100294.06
2023-03-05T22:57:33.399Z,100295.88
2023-03-05T23:00:36.358Z,100285.66
2023-03-05T23:03:39.978Z,100285.13
2023-03-05T23:06:42.725Z,100273.34
2023-03-05T23:09:50.378Z,100277.19
2023-03-05T23:12:54.840Z,100269.50
2023-03-05T23:15:57.699Z,100272.00
2023-03-05T23:19:00.569Z,100272.53
2023-03-05T23:22:04.847Z,100275.69
2023-03-05T23:25:08.021Z,100268.13
2023-03-05T23:28:10.760Z,100281.44
2023-03-05T23:31:13.526Z,100273.97
2023-03-05T23:34:16.391Z,100281.50
2023-03-05T23:37:19.049Z,100281.41
2023-03-05T23:40:27.848Z,100273.25
2023-03-05T23:43:30.907Z,100271.94
2023-03-05T23:46:33.771Z,100275.91
2023-03-05T23:49:36.713Z,100279.34
2023-03-05T23:52:39.579Z,100275.09
2023-03-05T23:55:44.172Z,100282.81
2023-03-05T23:58:46.956Z,100274.00
